KDTL/DTL METAR and TAF weather

Enter ICAO airport designator
Station Type Date Time Source
KDTL METAR 2021/06/23 00:15 UTC NOAA

KDTL 230015Z AUTO 23006KT 10SM CLR 23/06 A2979 RMK AO2


Station Type Date Time Source
KDTL Decoded METAR 2021/06/23 00:15 UTC NOAA

Detroit Lakes, Detroit Lakes Airport-Wething Field, MN, United States (KDTL) 46-50N 095-53W
Jun 22, 2021 - 08:15 PM EDT / 2021.06.23 0015 UTC
Wind: from the SW (230 degrees) at 7 MPH (6 KT):0
Visibility: 10 mile(s):0
Sky conditions: clear
Temperature: 73 F (23 C)
Dew Point: 42 F (6 C)
Relative Humidity: 33%
Pressure (altimeter): 29.79 in. Hg (1008 hPa)
ob: KDTL 230015Z AUTO 23006KT 10SM CLR 23/06 A2979 RMK AO2
cycle: 0

Station Type Date Time Source
KDTL TAF UTC NOAA

Error!

Example: see airport list